sensor_id;sensor_type;location;lat;lon;timestamp;pressure;altitude;pressure_sealevel;temperature;humidity
55610;BME280;41486;52.502;13.486;2022-08-05T00:02:37;100521.13;;;25.93;48.84
55610;BME280;41486;52.502;13.486;2022-08-05T00:05:28;100518.81;;;25.97;48.71
55610;BME280;41486;52.502;13.486;2022-08-05T00:08:34;100523.25;;;25.85;48.96
55610;BME280;41486;52.502;13.486;2022-08-05T00:11:05;100521.97;;;25.69;49.61
55610;BME280;41486;52.502;13.486;2022-08-05T00:14:03;100517.38;;;25.69;50.11
55610;BME280;41486;52.502;13.486;2022-08-05T00:16:38;100516.44;;;25.63;50.43
55610;BME280;41486;52.502;13.486;2022-08-05T00:19:19;100516.34;;;25.70;49.57
55610;BME280;41486;52.502;13.486;2022-08-05T00:22:07;100511.25;;;25.62;49.65
55610;BME280;41486;52.502;13.486;2022-08-05T00:24:37;100512.22;;;25.67;49.39
55610;BME280;41486;52.502;13.486;2022-08-05T00:27:28;100514.00;;;25.55;50.03
55610;BME280;41486;52.502;13.486;2022-08-05T00:30:02;100518.06;;;25.39;50.04
55610;BME280;41486;52.502;13.486;2022-08-05T00:32:37;100510.81;;;25.40;50.14
55610;BME280;41486;52.502;13.486;2022-08-05T00:35:16;100507.47;;;25.38;50.32
55610;BME280;41486;52.502;13.486;2022-08-05T00:37:46;100516.22;;;25.33;50.87
55610;BME280;41486;52.502;13.486;2022-08-05T00:40:45;100514.31;;;25.40;51.30
55610;BME280;41486;52.502;13.486;2022-08-05T00:43:20;100509.66;;;25.22;51.51
55610;BME280;41486;52.502;13.486;2022-08-05T00:46:03;100510.97;;;25.13;51.94
55610;BME280;41486;52.502;13.486;2022-08-05T00:48:31;100512.56;;;25.20;51.60
55610;BME280;41486;52.502;13.486;2022-08-05T00:51:35;100505.88;;;24.98;52.56
55610;BME280;41486;52.502;13.486;2022-08-05T00:54:17;100503.16;;;25.04;52.68
55610;BME280;41486;52.502;13.486;2022-08-05T00:56:45;100500.31;;;24.93;52.73
55610;BME280;41486;52.502;13.486;2022-08-05T00:59:19;100499.97;;;24.82;53.04
55610;BME280;41486;52.502;13.486;2022-08-05T01:01:47;100506.97;;;24.90;52.70
55610;BME280;41486;52.502;13.486;2022-08-05T01:04:15;100520.97;;;24.53;54.30
55610;BME280;41486;52.502;13.486;2022-08-05T01:06:46;100526.47;;;24.79;53.87
55610;BME280;41486;52.502;13.486;2022-08-05T01:09:18;100537.28;;;24.58;54.18
55610;BME280;41486;52.502;13.486;2022-08-05T01:11:47;100538.78;;;24.48;54.29
55610;BME280;41486;52.502;13.486;2022-08-05T01:14:25;100527.72;;;24.76;53.65
55610;BME280;41486;52.502;13.486;2022-08-05T01:17:00;100519.50;;;24.71;54.23
55610;BME280;41486;52.502;13.486;2022-08-05T01:19:34;100529.50;;;24.37;55.38
55610;BME280;41486;52.502;13.486;2022-08-05T01:22:30;100535.94;;;24.36;55.88
55610;BME280;41486;52.502;13.486;2022-08-05T01:25:23;100526.53;;;24.52;54.64
55610;BME280;41486;52.502;13.486;2022-08-05T01:28:22;100534.84;;;24.50;55.78
55610;BME280;41486;52.502;13.486;2022-08-05T01:30:53;100539.19;;;24.51;55.58
55610;BME280;41486;52.502;13.486;2022-08-05T01:33:28;100546.63;;;25.01;54.38
55610;BME280;41486;52.502;13.486;2022-08-05T01:36:05;100531.06;;;25.10;53.17
55610;BME280;41486;52.502;13.486;2022-08-05T01:38:43;100522.22;;;25.03;53.66
55610;BME280;41486;52.502;13.486;2022-08-05T01:41:17;100529.69;;;24.49;55.58
55610;BME280;41486;52.502;13.486;2022-08-05T01:43:50;100539.66;;;24.35;56.35
55610;BME280;41486;52.502;13.486;2022-08-05T01:46:20;100536.56;;;24.24;57.43
55610;BME280;41486;52.502;13.486;2022-08-05T01:49:10;100541.53;;;24.21;57.53
55610;BME280;41486;52.502;13.486;2022-08-05T01:51:52;100528.25;;;24.46;56.99
55610;BME280;41486;52.502;13.486;2022-08-05T01:54:27;100524.19;;;24.23;57.46
55610;BME280;41486;52.502;13.486;2022-08-05T01:56:56;100529.16;;;24.13;58.14
55610;BME280;41486;52.502;13.486;2022-08-05T01:59:48;100536.16;;;24.34;57.38
55610;BME280;41486;52.502;13.486;2022-08-05T02:02:20;100529.63;;;24.76;55.57
55610;BME280;41486;52.502;13.486;2022-08-05T02:04:57;100534.78;;;24.77;55.10
55610;BME280;41486;52.502;13.486;2022-08-05T02:07:29;100530.47;;;24.63;54.90
55610;BME280;41486;52.502;13.486;2022-08-05T02:09:59;100527.25;;;24.34;55.60
55610;BME280;41486;52.502;13.486;2022-08-05T02:12:33;100519.63;;;24.31;55.91
55610;BME280;41486;52.502;13.486;2022-08-05T02:15:08;100522.25;;;24.37;56.15
55610;BME280;41486;52.502;13.486;2022-08-05T02:17:46;100527.91;;;24.22;56.66
55610;BME280;41486;52.502;13.486;2022-08-05T02:20:40;100513.44;;;24.10;56.92
55610;BME280;41486;52.502;13.486;2022-08-05T02:23:13;100515.94;;;24.12;57.20
55610;BME280;41486;52.502;13.486;2022-08-05T02:25:43;100510.34;;;24.06;57.63
55610;BME280;41486;52.502;13.486;2022-08-05T02:28:20;100526.28;;;24.01;57.28
55610;BME280;41486;52.502;13.486;2022-08-05T02:31:01;100525.25;;;24.02;57.13
55610;BME280;41486;52.502;13.486;2022-08-05T02:33:36;100522.13;;;23.85;57.97
55610;BME280;41486;52.502;13.486;2022-08-05T02:36:09;100523.81;;;23.73;58.48
55610;BME280;41486;52.502;13.486;2022-08-05T02:38:44;100520.91;;;23.74;58.69
55610;BME280;41486;52.502;13.486;2022-08-05T02:41:21;100522.34;;;23.63;58.98
55610;BME280;41486;52.502;13.486;2022-08-05T02:44:09;100526.28;;;23.68;59.29
55610;BME280;41486;52.502;13.486;2022-08-05T02:46:43;100529.59;;;23.56;59.13
55610;BME280;41486;52.502;13.486;2022-08-05T02:49:28;100520.91;;;23.54;59.52
55610;BME280;41486;52.502;13.486;2022-08-05T02:52:06;100517.59;;;23.52;59.84
55610;BME280;41486;52.502;13.486;2022-08-05T02:54:36;100513.69;;;23.48;60.06
55610;BME280;41486;52.502;13.486;2022-08-05T02:57:10;100514.09;;;23.45;60.05
55610;BME280;41486;52.502;13.486;2022-08-05T02:59:58;100521.69;;;23.21;61.01
55610;BME280;41486;52.502;13.486;2022-08-05T03:02:33;100521.97;;;23.46;60.55
55610;BME280;41486;52.502;13.486;2022-08-05T03:05:04;100523.16;;;23.24;61.02
55610;BME280;41486;52.502;13.486;2022-08-05T03:07:37;100520.25;;;23.32;61.38
55610;BME280;41486;52.502;13.486;2022-08-05T03:10:26;100525.66;;;23.25;62.01
55610;BME280;41486;52.502;13.486;2022-08-05T03:12:54;100514.88;;;23.19;62.06
55610;BME280;41486;52.502;13.486;2022-08-05T03:15:21;100507.19;;;23.15;62.60
55610;BME280;41486;52.502;13.486;2022-08-05T03:17:52;100517.75;;;23.17;63.11
55610;BME280;41486;52.502;13.486;2022-08-05T03:20:23;100507.19;;;23.02;63.67
55610;BME280;41486;52.502;13.486;2022-08-05T03:22:53;100503.91;;;23.07;63.51
55610;BME280;41486;52.502;13.486;2022-08-05T03:25:24;100501.06;;;23.28;62.89
55610;BME280;41486;52.502;13.486;2022-08-05T03:28:00;100505.19;;;23.24;63.74
55610;BME280;41486;52.502;13.486;2022-08-05T03:30:30;100500.25;;;23.35;63.46
55610;BME280;41486;52.502;13.486;2022-08-05T03:33:03;100498.16;;;23.37;63.43
55610;BME280;41486;52.502;13.486;2022-08-05T03:35:31;100500.44;;;23.33;64.04
55610;BME280;41486;52.502;13.486;2022-08-05T03:38:09;100499.00;;;23.30;64.90
55610;BME280;41486;52.502;13.486;2022-08-05T03:40:40;100501.88;;;23.36;65.16
55610;BME280;41486;52.502;13.486;2022-08-05T03:43:13;100494.47;;;23.38;65.24
55610;BME280;41486;52.502;13.486;2022-08-05T03:46:02;100496.97;;;23.39;65.45
55610;BME280;41486;52.502;13.486;2022-08-05T03:48:35;100494.47;;;23.24;66.33
55610;BME280;41486;52.502;13.486;2022-08-05T03:51:10;100495.50;;;23.23;66.73
55610;BME280;41486;52.502;13.486;2022-08-05T03:54:04;100500.63;;;23.25;66.90
55610;BME280;41486;52.502;13.486;2022-08-05T03:56:54;100515.25;;;23.09;67.86
55610;BME280;41486;52.502;13.486;2022-08-05T03:59:30;100514.38;;;22.95;68.64
55610;BME280;41486;52.502;13.486;2022-08-05T04:02:21;100519.38;;;23.05;68.12
55610;BME280;41486;52.502;13.486;2022-08-05T04:05:12;100516.53;;;23.20;67.52
55610;BME280;41486;52.502;13.486;2022-08-05T04:07:41;100521.50;;;23.23;68.00
55610;BME280;41486;52.502;13.486;2022-08-05T04:10:25;100527.22;;;23.06;68.73
55610;BME280;41486;52.502;13.486;2022-08-05T04:12:56;100525.75;;;23.04;68.71
55610;BME280;41486;52.502;13.486;2022-08-05T04:15:25;100525.38;;;23.13;68.28
55610;BME280;41486;52.502;13.486;2022-08-05T04:18:00;100515.47;;;23.14;68.74
55610;BME280;41486;52.502;13.486;2022-08-05T04:20:29;100524.81;;;23.31;68.12
55610;BME280;41486;52.502;13.486;2022-08-05T04:22:59;100523.78;;;23.33;67.64
55610;BME280;41486;52.502;13.486;2022-08-05T04:25:27;100523.78;;;23.33;68.28
55610;BME280;41486;52.502;13.486;2022-08-05T04:28:15;100510.97;;;23.21;68.68
55610;BME280;41486;52.502;13.486;2022-08-05T04:30:43;100503.53;;;23.23;68.83
55610;BME280;41486;52.502;13.486;2022-08-05T04:33:11;100500.25;;;23.28;68.75
55610;BME280;41486;52.502;13.486;2022-08-05T04:35:41;100498.59;;;23.40;68.29
55610;BME280;41486;52.502;13.486;2022-08-05T04:38:29;100510.56;;;23.38;68.89
55610;BME280;41486;52.502;13.486;2022-08-05T04:41:05;100514.28;;;23.30;69.12
55610;BME280;41486;52.502;13.486;2022-08-05T04:43:35;100518.00;;;23.62;68.07
55610;BME280;41486;52.502;13.486;2022-08-05T04:46:13;100523.81;;;23.59;67.93
55610;BME280;41486;52.502;13.486;2022-08-05T04:48:54;100520.50;;;23.37;69.37
55610;BME280;41486;52.502;13.486;2022-08-05T04:51:25;100536.59;;;23.37;69.56
55610;BME280;41486;52.502;13.486;2022-08-05T04:53:56;100548.19;;;23.65;68.69
55610;BME280;41486;52.502;13.486;2022-08-05T04:56:27;100549.41;;;23.89;67.40
55610;BME280;41486;52.502;13.486;2022-08-05T04:59:03;100535.97;;;23.69;68.85
55610;BME280;41486;52.502;13.486;2022-08-05T05:01:50;100538.06;;;23.60;69.73
55610;BME280;41486;52.502;13.486;2022-08-05T05:04:38;100549.00;;;23.52;70.27
55610;BME280;41486;52.502;13.486;2022-08-05T05:07:15;100543.63;;;23.72;69.89
55610;BME280;41486;52.502;13.486;2022-08-05T05:09:44;100547.53;;;23.42;71.49
55610;BME280;41486;52.502;13.486;2022-08-05T05:12:12;100544.06;;;23.62;71.26
55610;BME280;41486;52.502;13.486;2022-08-05T05:14:40;100541.97;;;23.64;71.25
55610;BME280;41486;52.502;13.486;2022-08-05T05:17:17;100541.16;;;23.70;71.19
55610;BME280;41486;52.502;13.486;2022-08-05T05:19:52;100545.72;;;23.63;71.61
55610;BME280;41486;52.502;13.486;2022-08-05T05:22:23;100548.38;;;23.70;71.38
55610;BME280;41486;52.502;13.486;2022-08-05T05:24:53;100551.28;;;23.82;71.05
55610;BME280;41486;52.502;13.486;2022-08-05T05:27:26;100542.19;;;23.89;70.92
55610;BME280;41486;52.502;13.486;2022-08-05T05:30:15;100555.63;;;23.96;71.14
55610;BME280;41486;52.502;13.486;2022-08-05T05:33:00;100564.09;;;23.86;71.25
55610;BME280;41486;52.502;13.486;2022-08-05T05:35:42;100561.00;;;23.89;71.91
55610;BME280;41486;52.502;13.486;2022-08-05T05:38:12;100569.88;;;23.76;71.98
55610;BME280;41486;52.502;13.486;2022-08-05T05:40:48;100588.72;;;24.03;71.35
55610;BME280;41486;52.502;13.486;2022-08-05T05:43:18;100603.19;;;24.22;69.98
55610;BME280;41486;52.502;13.486;2022-08-05T05:46:06;100615.59;;;24.23;70.48
55610;BME280;41486;52.502;13.486;2022-08-05T05:48:43;100623.66;;;24.17;70.85
55610;BME280;41486;52.502;13.486;2022-08-05T05:51:19;100618.09;;;24.12;70.86
55610;BME280;41486;52.502;13.486;2022-08-05T05:54:17;100608.56;;;24.09;71.35
55610;BME280;41486;52.502;13.486;2022-08-05T05:56:46;100590.78;;;24.01;71.36
55610;BME280;41486;52.502;13.486;2022-08-05T05:59:15;100587.28;;;23.94;72.10
55610;BME280;41486;52.502;13.486;2022-08-05T06:01:45;100617.47;;;24.09;71.90
55610;BME280;41486;52.502;13.486;2022-08-05T06:04:23;100635.22;;;24.24;70.99
55610;BME280;41486;52.502;13.486;2022-08-05T06:06:54;100635.22;;;24.17;71.43
55610;BME280;41486;52.502;13.486;2022-08-05T06:09:28;100652.19;;;24.24;70.79
55610;BME280;41486;52.502;13.486;2022-08-05T06:12:18;100673.50;;;24.26;70.13
55610;BME280;41486;52.502;13.486;2022-08-05T06:14:46;100657.75;;;24.36;69.90
55610;BME280;41486;52.502;13.486;2022-08-05T06:17:17;100648.84;;;24.49;69.71
55610;BME280;41486;52.502;13.486;2022-08-05T06:19:56;100662.91;;;24.58;69.46
55610;BME280;41486;52.502;13.486;2022-08-05T06:22:27;100663.50;;;24.60;69.09
55610;BME280;41486;52.502;13.486;2022-08-05T06:24:57;100673.03;;;24.69;68.47
55610;BME280;41486;52.502;13.486;2022-08-05T06:27:25;100678.00;;;24.66;68.24
55610;BME280;41486;52.502;13.486;2022-08-05T06:30:13;100689.19;;;24.63;68.60
55610;BME280;41486;52.502;13.486;2022-08-05T06:32:47;100687.94;;;24.58;68.89
55610;BME280;41486;52.502;13.486;2022-08-05T06:35:19;100687.94;;;24.58;69.30
55610;BME280;41486;52.502;13.486;2022-08-05T06:38:07;100683.81;;;24.56;69.96
55610;BME280;41486;52.502;13.486;2022-08-05T06:40:40;100703.47;;;24.43;70.18
55610;BME280;41486;52.502;13.486;2022-08-05T06:43:15;100681.78;;;24.38;69.54
55610;BME280;41486;52.502;13.486;2022-08-05T06:46:03;100667.06;;;24.47;70.32
55610;BME280;41486;52.502;13.486;2022-08-05T06:48:33;100667.66;;;24.63;69.62
55610;BME280;41486;52.502;13.486;2022-08-05T06:51:24;100668.06;;;24.80;69.05
55610;BME280;41486;52.502;13.486;2022-08-05T06:53:58;100667.03;;;24.87;68.83
55610;BME280;41486;52.502;13.486;2022-08-05T06:56:30;100655.59;;;24.92;68.37
55610;BME280;41486;52.502;13.486;2022-08-05T06:59:00;100656.59;;;24.98;68.15
55610;BME280;41486;52.502;13.486;2022-08-05T07:01:28;100672.13;;;25.09;67.74
55610;BME280;41486;52.502;13.486;2022-08-05T07:03:59;100661.75;;;25.06;67.80
55610;BME280;41486;52.502;13.486;2022-08-05T07:06:29;100654.47;;;25.13;67.68
55610;BME280;41486;52.502;13.486;2022-08-05T07:08:58;100660.09;;;25.12;68.05
55610;BME280;41486;52.502;13.486;2022-08-05T07:11:32;100658.16;;;25.26;67.04
55610;BME280;41486;52.502;13.486;2022-08-05T07:14:03;100664.22;;;25.14;66.77
55610;BME280;41486;52.502;13.486;2022-08-05T07:16:59;100669.19;;;25.17;67.63
55610;BME280;41486;52.502;13.486;2022-08-05T07:19:47;100668.56;;;25.15;67.51
55610;BME280;41486;52.502;13.486;2022-08-05T07:22:36;100671.66;;;25.19;67.28
55610;BME280;41486;52.502;13.486;2022-08-05T07:25:05;100687.97;;;25.31;66.51
55610;BME280;41486;52.502;13.486;2022-08-05T07:27:55;100698.13;;;25.29;66.84
55610;BME280;41486;52.502;13.486;2022-08-05T07:30:34;100720.09;;;25.26;67.33
55610;BME280;41486;52.502;13.486;2022-08-05T07:33:07;100722.97;;;25.31;67.89
55610;BME280;41486;52.502;13.486;2022-08-05T07:35:42;100725.66;;;25.38;67.34
55610;BME280;41486;52.502;13.486;2022-08-05T07:38:30;100716.72;;;25.37;67.29
55610;BME280;41486;52.502;13.486;2022-08-05T07:41:13;100710.28;;;25.51;67.20
55610;BME280;41486;52.502;13.486;2022-08-05T07:44:05;100712.31;;;25.56;66.54
55610;BME280;41486;52.502;13.486;2022-08-05T07:46:45;100722.66;;;25.59;65.07
55610;BME280;41486;52.502;13.486;2022-08-05T07:49:15;100720.19;;;25.58;63.90
55610;BME280;41486;52.502;13.486;2022-08-05T07:51:44;100708.97;;;25.61;63.72
55610;BME280;41486;52.502;13.486;2022-08-05T07:54:21;100701.13;;;25.59;63.86
55610;BME280;41486;52.502;13.486;2022-08-05T07:56:59;100710.88;;;25.54;63.02
55610;BME280;41486;52.502;13.486;2022-08-05T07:59:49;100713.88;;;25.39;63.31
55610;BME280;41486;52.502;13.486;2022-08-05T08:02:22;100715.31;;;25.41;63.66
55610;BME280;41486;52.502;13.486;2022-08-05T08:04:56;100698.91;;;25.36;64.38
55610;BME280;41486;52.502;13.486;2022-08-05T08:07:24;100691.13;;;25.21;64.75
55610;BME280;41486;52.502;13.486;2022-08-05T08:09:54;100698.19;;;25.09;65.25
55610;BME280;41486;52.502;13.486;2022-08-05T08:12:23;100712.66;;;25.28;65.28
55610;BME280;41486;52.502;13.486;2022-08-05T08:15:06;100710.22;;;25.06;64.65
55610;BME280;41486;52.502;13.486;2022-08-05T08:17:40;100703.41;;;25.03;65.33
55610;BME280;41486;52.502;13.486;2022-08-05T08:20:16;100700.25;;;25.13;64.99
55610;BME280;41486;52.502;13.486;2022-08-05T08:23:04;100707.72;;;25.11;65.00
55610;BME280;41486;52.502;13.486;2022-08-05T08:25:53;100703.97;;;25.19;64.33
55610;BME280;41486;52.502;13.486;2022-08-05T08:28:26;100691.78;;;25.10;64.29
55610;BME280;41486;52.502;13.486;2022-08-05T08:31:04;100678.66;;;25.27;63.24
55610;BME280;41486;52.502;13.486;2022-08-05T08:33:33;100662.69;;;25.39;63.09
55610;BME280;41486;52.502;13.486;2022-08-05T08:36:05;100663.69;;;25.44;63.03
55610;BME280;41486;52.502;13.486;2022-08-05T08:38:53;100684.25;;;25.25;63.60
55610;BME280;41486;52.502;13.486;2022-08-05T08:41:25;100703.94;;;25.26;64.04
55610;BME280;41486;52.502;13.486;2022-08-05T08:44:16;100719.25;;;25.25;63.17
55610;BME280;41486;52.502;13.486;2022-08-05T08:47:06;100728.81;;;25.14;63.60
55610;BME280;41486;52.502;13.486;2022-08-05T08:49:56;100751.56;;;25.25;63.45
55610;BME280;41486;52.502;13.486;2022-08-05T08:52:49;100747.03;;;25.19;62.91
55610;BME280;41486;52.502;13.486;2022-08-05T08:55:19;100746.03;;;25.13;62.87
55610;BME280;41486;52.502;13.486;2022-08-05T08:58:10;100731.84;;;24.79;64.27
55610;BME280;41486;52.502;13.486;2022-08-05T09:00:41;100721.84;;;24.93;64.55
55610;BME280;41486;52.502;13.486;2022-08-05T09:03:11;100739.25;;;24.91;66.11
55610;BME280;41486;52.502;13.486;2022-08-05T09:05:47;100752.94;;;24.76;69.67
55610;BME280;41486;52.502;13.486;2022-08-05T09:08:38;100761.38;;;25.06;67.08
55610;BME280;41486;52.502;13.486;2022-08-05T09:11:06;100753.34;;;24.86;66.43
55610;BME280;41486;52.502;13.486;2022-08-05T09:13:40;100751.47;;;24.73;67.46
55610;BME280;41486;52.502;13.486;2022-08-05T09:16:28;100745.50;;;24.51;69.33
55610;BME280;41486;52.502;13.486;2022-08-05T09:18:58;100761.22;;;24.74;68.55
55610;BME280;41486;52.502;13.486;2022-08-05T09:21:26;100767.22;;;24.69;68.23
55610;BME280;41486;52.502;13.486;2022-08-05T09:24:15;100778.19;;;24.54;69.53
55610;BME280;41486;52.502;13.486;2022-08-05T09:26:46;100776.13;;;24.70;69.18
55610;BME280;41486;52.502;13.486;2022-08-05T09:29:36;100776.31;;;24.75;69.30
55610;BME280;41486;52.502;13.486;2022-08-05T09:32:13;100778.97;;;24.21;70.83
55610;BME280;41486;52.502;13.486;2022-08-05T09:35:08;100775.88;;;24.51;69.97
55610;BME280;41486;52.502;13.486;2022-08-05T09:37:54;100771.97;;;24.74;68.33
55610;BME280;41486;52.502;13.486;2022-08-05T09:40:42;100783.19;;;24.71;69.33
55610;BME280;41486;52.502;13.486;2022-08-05T09:43:28;100789.34;;;24.85;69.05
55610;BME280;41486;52.502;13.486;2022-08-05T09:46:23;100780.66;;;24.89;66.53
55610;BME280;41486;52.502;13.486;2022-08-05T09:48:55;100795.97;;;24.82;66.65
55610;BME280;41486;52.502;13.486;2022-08-05T09:51:44;100794.53;;;24.60;67.77
55610;BME280;41486;52.502;13.486;2022-08-05T09:54:16;100798.06;;;24.67;67.27
55610;BME280;41486;52.502;13.486;2022-08-05T09:56:55;100789.75;;;24.62;67.66
55610;BME280;41486;52.502;13.486;2022-08-05T09:59:27;100771.97;;;24.27;69.13
55610;BME280;41486;52.502;13.486;2022-08-05T10:02:03;100753.34;;;24.19;69.19
55610;BME280;41486;52.502;13.486;2022-08-05T10:04:35;100748.59;;;24.34;70.00
55610;BME280;41486;52.502;13.486;2022-08-05T10:07:06;100757.06;;;24.38;70.47
55610;BME280;41486;52.502;13.486;2022-08-05T10:09:53;100727.69;;;24.30;71.39
55610;BME280;41486;52.502;13.486;2022-08-05T10:12:43;100715.28;;;24.35;73.10
55610;BME280;41486;52.502;13.486;2022-08-05T10:15:26;100726.84;;;24.29;74.15
55610;BME280;41486;52.502;13.486;2022-08-05T10:18:12;100726.03;;;24.29;76.03
55610;BME280;41486;52.502;13.486;2022-08-05T10:20:45;100705.75;;;24.19;76.76
55610;BME280;41486;52.502;13.486;2022-08-05T10:23:17;100698.06;;;23.96;79.30
55610;BME280;41486;52.502;13.486;2022-08-05T10:26:09;100714.19;;;23.89;78.76
55610;BME280;41486;52.502;13.486;2022-08-05T10:28:41;100732.44;;;24.14;77.20
55610;BME280;41486;52.502;13.486;2022-08-05T10:31:11;100753.31;;;24.25;77.09
55610;BME280;41486;52.502;13.486;2022-08-05T10:33:59;100716.91;;;24.63;76.19
55610;BME280;41486;52.502;13.486;2022-08-05T10:36:28;100749.81;;;24.52;76.36
55610;BME280;41486;52.502;13.486;2022-08-05T10:39:02;100788.13;;;24.47;76.85
55610;BME280;41486;52.502;13.486;2022-08-05T10:41:45;100793.31;;;24.69;74.62
55610;BME280;41486;52.502;13.486;2022-08-05T10:44:17;100801.75;;;24.52;76.44
55610;BME280;41486;52.502;13.486;2022-08-05T10:46:50;100793.50;;;24.74;73.74
55610;BME280;41486;52.502;13.486;2022-08-05T10:49:21;100783.56;;;24.54;74.26
55610;BME280;41486;52.502;13.486;2022-08-05T10:51:58;100757.06;;;24.58;73.16
55610;BME280;41486;52.502;13.486;2022-08-05T10:54:48;100774.66;;;24.27;79.17
55610;BME280;41486;52.502;13.486;2022-08-05T10:57:33;100769.44;;;23.15;96.40
55610;BME280;41486;52.502;13.486;2022-08-05T11:00:09;100775.25;;;23.19;98.31
55610;BME280;41486;52.502;13.486;2022-08-05T11:03:10;100775.34;;;23.04;98.42
55610;BME280;41486;52.502;13.486;2022-08-05T11:06:10;100776.09;;;23.19;100.00
55610;BME280;41486;52.502;13.486;2022-08-05T11:09:20;100770.16;;;23.02;100.00
55610;BME280;41486;52.502;13.486;2022-08-05T11:15:23;100744.25;;;23.51;100.00
55610;BME280;41486;52.502;13.486;2022-08-05T11:18:24;100737.63;;;23.60;100.00
55610;BME280;41486;52.502;13.486;2022-08-05T11:20:56;100744.88;;;24.35;94.67
55610;BME280;41486;52.502;13.486;2022-08-05T11:23:33;100754.78;;;25.61;82.17
55610;BME280;41486;52.502;13.486;2022-08-05T11:26:22;100777.75;;;28.15;67.58
55610;BME280;41486;52.502;13.486;2022-08-05T11:29:00;100790.53;;;28.98;60.94
55610;BME280;41486;52.502;13.486;2022-08-05T11:31:41;100791.44;;;28.44;59.39
55610;BME280;41486;52.502;13.486;2022-08-05T11:34:37;100802.78;;;28.10;56.57
55610;BME280;41486;52.502;13.486;2022-08-05T11:40:58;100794.72;;;27.17;55.66
55610;BME280;41486;52.502;13.486;2022-08-05T11:43:55;100796.59;;;26.48;58.22
55610;BME280;41486;52.502;13.486;2022-08-05T11:46:35;100798.94;;;26.05;60.74
55610;BME280;41486;52.502;13.486;2022-08-05T11:49:27;100798.38;;;26.86;59.52
55610;BME280;41486;52.502;13.486;2022-08-05T11:52:00;100800.28;;;28.63;54.60
55610;BME280;41486;52.502;13.486;2022-08-05T11:54:37;100802.19;;;29.22;50.63
55610;BME280;41486;52.502;13.486;2022-08-05T11:57:07;100802.44;;;28.85;51.90
55610;BME280;41486;52.502;13.486;2022-08-05T11:59:53;100804.69;;;30.22;48.45
55610;BME280;41486;52.502;13.486;2022-08-05T12:02:26;100793.53;;;30.35;47.79
55610;BME280;41486;52.502;13.486;2022-08-05T12:04:58;100801.72;;;28.89;51.73
55610;BME280;41486;52.502;13.486;2022-08-05T12:07:35;100803.03;;;30.04;48.09
55610;BME280;41486;52.502;13.486;2022-08-05T12:10:25;100785.63;;;28.94;51.51
55610;BME280;41486;52.502;13.486;2022-08-05T12:13:12;100782.59;;;27.64;56.06
55610;BME280;41486;52.502;13.486;2022-08-05T12:15:44;100794.06;;;28.62;51.77
55610;BME280;41486;52.502;13.486;2022-08-05T12:18:27;100790.03;;;29.24;50.62
55610;BME280;41486;52.502;13.486;2022-08-05T12:21:10;100791.88;;;28.29;54.22
55610;BME280;41486;52.502;13.486;2022-08-05T12:23:51;100796.06;;;28.67;53.10
55610;BME280;41486;52.502;13.486;2022-08-05T12:26:19;100807.72;;;29.92;50.11
55610;BME280;41486;52.502;13.486;2022-08-05T12:28:49;100809.69;;;31.33;46.94
55610;BME280;41486;52.502;13.486;2022-08-05T12:31:17;100805.34;;;31.81;45.46
55610;BME280;41486;52.502;13.486;2022-08-05T12:33:59;100797.38;;;31.52;46.35
55610;BME280;41486;52.502;13.486;2022-08-05T12:36:30;100802.84;;;29.94;49.70
55610;BME280;41486;52.502;13.486;2022-08-05T12:38:59;100793.97;;;29.69;50.55
55610;BME280;41486;52.502;13.486;2022-08-05T12:41:32;100787.41;;;29.94;50.26
55610;BME280;41486;52.502;13.486;2022-08-05T12:44:10;100788.16;;;29.25;51.46
55610;BME280;41486;52.502;13.486;2022-08-05T12:46:55;100794.31;;;29.32;50.72
55610;BME280;41486;52.502;13.486;2022-08-05T12:49:23;100786.16;;;29.73;50.35
55610;BME280;41486;52.502;13.486;2022-08-05T12:52:17;100800.25;;;29.99;49.76
55610;BME280;41486;52.502;13.486;2022-08-05T12:54:54;100807.72;;;29.80;49.40
55610;BME280;41486;52.502;13.486;2022-08-05T12:57:24;100800.66;;;29.38;50.23
55610;BME280;41486;52.502;13.486;2022-08-05T13:00:21;100803.09;;;29.51;50.45
55610;BME280;41486;52.502;13.486;2022-08-05T13:03:13;100792.91;;;28.94;52.49
55610;BME280;41486;52.502;13.486;2022-08-05T13:05:45;100794.09;;;29.10;52.17
55610;BME280;41486;52.502;13.486;2022-08-05T13:08:19;100793.59;;;29.13;51.88
55610;BME280;41486;52.502;13.486;2022-08-05T13:11:00;100796.94;;;28.37;53.97
55610;BME280;41486;52.502;13.486;2022-08-05T13:13:30;100794.69;;;28.10;54.29
55610;BME280;41486;52.502;13.486;2022-08-05T13:16:18;100789.69;;;28.38;53.93
55610;BME280;41486;52.502;13.486;2022-08-05T13:18:55;100787.63;;;28.09;53.34
55610;BME280;41486;52.502;13.486;2022-08-05T13:21:24;100799.31;;;28.33;53.09
55610;BME280;41486;52.502;13.486;2022-08-05T13:23:55;100799.97;;;28.83;50.93
55610;BME280;41486;52.502;13.486;2022-08-05T13:26:24;100793.75;;;28.94;50.41
55610;BME280;41486;52.502;13.486;2022-08-05T13:28:56;100803.06;;;30.21;47.42
55610;BME280;41486;52.502;13.486;2022-08-05T13:31:25;100804.94;;;30.20;47.04
55610;BME280;41486;52.502;13.486;2022-08-05T13:34:13;100798.84;;;29.55;49.73
55610;BME280;41486;52.502;13.486;2022-08-05T13:36:51;100795.47;;;29.24;50.50
55610;BME280;41486;52.502;13.486;2022-08-05T13:39:21;100797.84;;;29.21;50.66
55610;BME280;41486;52.502;13.486;2022-08-05T13:42:09;100800.81;;;29.31;50.08
55610;BME280;41486;52.502;13.486;2022-08-05T13:44:41;100797.72;;;29.27;49.76